LTAY/DNZ METAR and TAF weather

Enter ICAO airport designator
Station Type Date Time Source
LTAY METAR 2021/05/09 23:50 UTC NOAA

LTAY 092350Z 05014KT CAVOK 12/M04 Q1019


Station Type Date Time Source
LTAY Decoded METAR 2021/05/09 23:50 UTC NOAA

Cardak, Turkey (LTAY) 37-47N 029-42E
May 09, 2021 - 07:50 PM EDT / 2021.05.09 2350 UTC
Wind: from the NE (050 degrees) at 16 MPH (14 KT):0
Visibility: greater than 7 mile(s):0
Temperature: 53 F (12 C)
Dew Point: 24 F (-4 C)
Relative Humidity: 32%
Pressure (altimeter): 30.09 in. Hg (1019 hPa)
ob: LTAY 092350Z 05014KT CAVOK 12/M04 Q1019
cycle: 0

Station Type Date Time Source
LTAY TAF UTC NOAA

Error!

Example: see airport list